createdAt,value
2023-03-14T00:03:25.732Z,93401.00
2023-03-14T00:07:25.711Z,93380.00
2023-03-14T00:11:25.713Z,93368.00
2023-03-14T00:15:25.667Z,93380.00
2023-03-14T00:19:25.641Z,93358.00
2023-03-14T00:23:25.561Z,93348.00
2023-03-14T00:27:25.759Z,93327.00
2023-03-14T00:31:25.671Z,93339.00
2023-03-14T00:35:25.604Z,93329.00
2023-03-14T00:39:25.576Z,93333.00
2023-03-14T00:43:25.602Z,93313.00
2023-03-14T00:47:25.494Z,93304.00
2023-03-14T00:51:25.446Z,93315.00
2023-03-14T00:55:25.456Z,93290.00
2023-03-14T00:59:25.347Z,93302.00
2023-03-14T01:03:25.549Z,93282.00
2023-03-14T01:07:25.516Z,93294.00
2023-03-14T01:11:25.458Z,93282.00
2023-03-14T01:15:25.432Z,93288.00
2023-03-14T01:19:25.454Z,93274.00
2023-03-14T01:23:25.368Z,93278.00
2023-03-14T01:27:25.348Z,93286.00
2023-03-14T01:31:25.306Z,93268.00
2023-03-14T01:35:25.240Z,93274.00
2023-03-14T01:39:25.204Z,93272.00
2023-03-14T01:43:25.160Z,93258.00
2023-03-14T01:47:25.330Z,93251.00
2023-03-14T01:51:25.303Z,93247.00
2023-03-14T01:55:25.234Z,93255.00
2023-03-14T01:59:25.199Z,93258.00
2023-03-14T02:03:25.244Z,93266.00
2023-03-14T02:07:25.152Z,93249.00
2023-03-14T02:11:25.078Z,93247.00
2023-03-14T02:15:25.103Z,93266.00
2023-03-14T02:19:25.039Z,93268.00
2023-03-14T02:23:24.984Z,93270.00
2023-03-14T02:27:24.979Z,93262.00
2023-03-14T02:31:24.975Z,93264.00
2023-03-14T02:35:24.881Z,93284.00
2023-03-14T02:39:25.012Z,93282.00
2023-03-14T02:43:25.217Z,93280.00
2023-03-14T02:47:25.364Z,93286.00
2023-03-14T02:51:25.304Z,93274.00
2023-03-14T02:55:25.269Z,93282.00
2023-03-14T02:59:25.300Z,93282.00
2023-03-14T03:03:25.225Z,93298.00
2023-03-14T03:07:25.172Z,93310.00
2023-03-14T03:11:25.134Z,93319.00
2023-03-14T03:15:25.122Z,93329.00
2023-03-14T03:19:25.144Z,93325.00
2023-03-14T03:23:25.061Z,93329.00
2023-03-14T03:27:25.034Z,93337.00
2023-03-14T03:31:24.975Z,93348.00
2023-03-14T03:35:24.943Z,93333.00
2023-03-14T03:39:24.902Z,93350.00
2023-03-14T03:43:24.857Z,93362.00
2023-03-14T03:47:24.822Z,93374.00
2023-03-14T03:51:24.758Z,93374.00
2023-03-14T03:55:24.760Z,93374.00
2023-03-14T03:59:24.700Z,93360.00
2023-03-14T04:03:24.763Z,93364.00
2023-03-14T04:07:24.645Z,93364.00
2023-03-14T04:11:24.673Z,93360.00
2023-03-14T04:15:24.570Z,93360.00
2023-03-14T04:19:24.519Z,93370.00
2023-03-14T04:23:24.520Z,93374.00
2023-03-14T04:27:24.452Z,93374.00
2023-03-14T04:31:24.452Z,93384.00
2023-03-14T04:35:24.731Z,93390.00
2023-03-14T04:39:24.421Z,93390.00
2023-03-14T04:43:24.355Z,93380.00
2023-03-14T04:47:24.675Z,93386.00
2023-03-14T04:51:24.352Z,93384.00
2023-03-14T04:55:24.593Z,93384.00
2023-03-14T04:59:24.263Z,93380.00
2023-03-14T05:03:24.266Z,93374.00
2023-03-14T05:07:24.294Z,93360.00
2023-03-14T05:11:24.361Z,93360.00
2023-03-14T05:15:24.556Z,93337.00
2023-03-14T05:19:24.711Z,93323.00
2023-03-14T05:23:25.211Z,93319.00
2023-03-14T05:27:24.612Z,93308.00
2023-03-14T05:31:24.683Z,93319.00
2023-03-14T05:35:24.606Z,93317.00
2023-03-14T05:39:24.552Z,93306.00
2023-03-14T05:43:24.540Z,93304.00
2023-03-14T05:47:24.581Z,93300.00
2023-03-14T05:51:24.456Z,93300.00
2023-03-14T05:55:24.407Z,93286.00
2023-03-14T05:59:24.368Z,93268.00
2023-03-14T06:03:24.394Z,93256.00
2023-03-14T06:07:24.321Z,93247.00
2023-03-14T06:11:24.255Z,93253.00
2023-03-14T06:15:24.199Z,93247.00
2023-03-14T06:19:24.183Z,93249.00
2023-03-14T06:23:24.194Z,93249.00
2023-03-14T06:27:24.145Z,93247.00
2023-03-14T06:31:24.281Z,93255.00
2023-03-14T06:35:24.259Z,93253.00
2023-03-14T06:39:24.743Z,93255.00
2023-03-14T06:43:24.492Z,93260.00
2023-03-14T06:47:24.315Z,93274.00
2023-03-14T06:51:24.325Z,93298.00
2023-03-14T06:55:24.309Z,93306.00
2023-03-14T06:59:24.367Z,93310.00
2023-03-14T07:03:24.512Z,93308.00
2023-03-14T07:07:24.716Z,93311.00
2023-03-14T07:11:24.438Z,93311.00
2023-03-14T07:15:24.428Z,93310.00
2023-03-14T07:19:24.359Z,93302.00
2023-03-14T07:23:24.290Z,93298.00
2023-03-14T07:27:24.277Z,93308.00
2023-03-14T07:31:24.347Z,93310.00
2023-03-14T07:35:24.248Z,93311.00
2023-03-14T07:39:24.289Z,93296.00
2023-03-14T07:43:24.118Z,93308.00
2023-03-14T07:47:24.090Z,93298.00
2023-03-14T07:51:24.110Z,93311.00
2023-03-14T07:55:24.081Z,93310.00
2023-03-14T07:59:24.007Z,93313.00
2023-03-14T08:03:23.960Z,93310.00
2023-03-14T08:07:23.917Z,93290.00
2023-03-14T08:11:24.165Z,93294.00
2023-03-14T08:15:24.272Z,93294.00
2023-03-14T08:19:24.251Z,93292.00
2023-03-14T08:23:24.298Z,93298.00
2023-03-14T08:27:24.419Z,93304.00
2023-03-14T08:31:24.972Z,93308.00
2023-03-14T08:35:24.790Z,93298.00
2023-03-14T08:39:24.590Z,93306.00
2023-03-14T08:43:24.754Z,93308.00
2023-03-14T08:47:25.003Z,93313.00
2023-03-14T08:51:25.369Z,93308.00
2023-03-14T08:55:25.092Z,93308.00
2023-03-14T08:59:25.181Z,93306.00
2023-03-14T09:03:25.103Z,93315.00
2023-03-14T09:07:25.369Z,93315.00
2023-03-14T09:11:25.115Z,93323.00
2023-03-14T09:15:25.123Z,93331.00
2023-03-14T09:19:25.321Z,93335.00
2023-03-14T09:23:25.097Z,93337.00
2023-03-14T09:27:25.175Z,93339.00
2023-03-14T09:31:25.317Z,93335.00
2023-03-14T09:35:25.834Z,93339.00
2023-03-14T09:39:26.308Z,93325.00
2023-03-14T09:43:25.445Z,93329.00
2023-03-14T09:47:25.411Z,93358.00
2023-03-14T09:51:25.335Z,93358.00
2023-03-14T09:55:28.124Z,93368.00
2023-03-14T09:59:25.297Z,93364.00
2023-03-14T10:03:25.262Z,93366.00
2023-03-14T10:07:25.233Z,93376.00
2023-03-14T10:11:25.151Z,93378.00
2023-03-14T10:15:25.126Z,93378.00
2023-03-14T10:19:25.145Z,93378.00
2023-03-14T10:23:25.069Z,93372.00
2023-03-14T10:27:25.001Z,93364.00
2023-03-14T10:31:29.675Z,93360.00
2023-03-14T10:35:25.361Z,93360.00
2023-03-14T10:39:25.851Z,93376.00
2023-03-14T10:43:25.427Z,93366.00
2023-03-14T10:47:26.178Z,93364.00
2023-03-14T10:51:25.220Z,93368.00
2023-03-14T10:55:25.158Z,93370.00
2023-03-14T10:59:25.170Z,93364.00
2023-03-14T11:03:25.153Z,93356.00
2023-03-14T11:07:25.262Z,93358.00
2023-03-14T11:11:25.160Z,93348.00
2023-03-14T11:15:25.196Z,93348.00
2023-03-14T11:19:25.205Z,93339.00
2023-03-14T11:23:25.174Z,93331.00
2023-03-14T11:27:25.218Z,93315.00
2023-03-14T11:31:25.257Z,93313.00
2023-03-14T11:35:25.366Z,93308.00
2023-03-14T11:39:25.414Z,93300.00
2023-03-14T11:43:25.430Z,93300.00
2023-03-14T11:47:25.404Z,93296.00
2023-03-14T11:51:25.395Z,93290.00
2023-03-14T11:55:25.416Z,93284.00
2023-03-14T11:59:25.482Z,93274.00
2023-03-14T12:03:25.447Z,93274.00
2023-03-14T12:07:25.365Z,93268.00
2023-03-14T12:11:25.392Z,93266.00
2023-03-14T12:15:25.287Z,93268.00
2023-03-14T12:19:25.261Z,93262.00
2023-03-14T12:23:25.240Z,93260.00
2023-03-14T12:27:25.207Z,93260.00
2023-03-14T12:31:25.222Z,93264.00
2023-03-14T12:35:25.180Z,93264.00
2023-03-14T12:39:25.084Z,93266.00
2023-03-14T12:43:25.067Z,93262.00
2023-03-14T12:47:25.038Z,93260.00
2023-03-14T12:51:24.979Z,93260.00
2023-03-14T12:55:25.047Z,93253.00
2023-03-14T12:59:25.209Z,93243.00
2023-03-14T13:03:25.453Z,93249.00
2023-03-14T13:07:25.649Z,93249.00
2023-03-14T13:11:25.720Z,93249.00
2023-03-14T13:15:25.823Z,93253.00
2023-03-14T13:19:25.781Z,93256.00
2023-03-14T13:23:25.816Z,93256.00
2023-03-14T13:27:25.920Z,93255.00
2023-03-14T13:31:25.908Z,93258.00
2023-03-14T13:35:26.008Z,93266.00
2023-03-14T13:39:25.862Z,93262.00
2023-03-14T13:43:25.858Z,93272.00
2023-03-14T13:47:25.951Z,93274.00
2023-03-14T13:51:25.904Z,93284.00
2023-03-14T13:55:25.905Z,93304.00
2023-03-14T13:59:25.925Z,93317.00
2023-03-14T14:03:26.057Z,93325.00
2023-03-14T14:07:26.001Z,93331.00
2023-03-14T14:11:32.703Z,93313.00
2023-03-14T14:15:26.942Z,93319.00
2023-03-14T14:19:26.150Z,93319.00
2023-03-14T14:23:25.893Z,93339.00
2023-03-14T14:27:27.373Z,93348.00
2023-03-14T14:31:25.948Z,93358.00
2023-03-14T14:35:25.975Z,93364.00
2023-03-14T14:39:26.122Z,93370.00
2023-03-14T14:43:26.374Z,93380.00
2023-03-14T14:47:26.356Z,93382.00
2023-03-14T14:51:26.274Z,93395.00
2023-03-14T14:55:26.306Z,93413.00
2023-03-14T14:59:26.186Z,93413.00
2023-03-14T15:03:26.180Z,93427.00
2023-03-14T15:07:28.157Z,93441.00
2023-03-14T15:11:26.121Z,93445.00
2023-03-14T15:15:26.095Z,93431.00
2023-03-14T15:19:26.093Z,93425.00
2023-03-14T15:23:26.111Z,93429.00
2023-03-14T15:27:26.123Z,93427.00
2023-03-14T15:31:26.051Z,93425.00
2023-03-14T15:35:26.076Z,93423.00
2023-03-14T15:39:26.028Z,93425.00
2023-03-14T15:43:26.130Z,93437.00
2023-03-14T15:47:26.143Z,93439.00
2023-03-14T15:51:26.120Z,93456.00
2023-03-14T15:55:26.151Z,93462.00
2023-03-14T15:59:26.128Z,93460.00
2023-03-14T16:03:26.173Z,93474.00
2023-03-14T16:07:26.114Z,93484.00
2023-03-14T16:11:26.127Z,93480.00
2023-03-14T16:15:26.128Z,93484.00
2023-03-14T16:19:26.065Z,93494.00
2023-03-14T16:23:26.498Z,93494.00
2023-03-14T16:27:26.048Z,93507.00
2023-03-14T16:31:26.123Z,93505.00
2023-03-14T16:35:26.498Z,93513.00
2023-03-14T16:39:26.029Z,93519.00
2023-03-14T16:43:26.075Z,93537.00
2023-03-14T16:47:26.085Z,93548.00
2023-03-14T16:51:26.049Z,93560.00
2023-03-14T16:55:26.131Z,93564.00
2023-03-14T16:59:26.162Z,93574.00
2023-03-14T17:03:26.258Z,93586.00
2023-03-14T17:07:26.269Z,93598.00
2023-03-14T17:11:26.348Z,93598.00
2023-03-14T17:15:26.446Z,93631.00
2023-03-14T17:19:26.510Z,93650.00
2023-03-14T17:23:26.603Z,93646.00
2023-03-14T17:27:26.730Z,93654.00
2023-03-14T17:31:26.857Z,93658.00
2023-03-14T17:35:26.980Z,93678.00
2023-03-14T17:39:27.052Z,93686.00
2023-03-14T17:43:27.169Z,93684.00
2023-03-14T17:47:27.506Z,93742.00
2023-03-14T17:51:27.522Z,93740.00
2023-03-14T17:55:28.040Z,93774.00
2023-03-14T17:59:28.019Z,93782.00
2023-03-14T18:03:27.873Z,93797.00
2023-03-14T18:07:28.056Z,93795.00
2023-03-14T18:11:28.206Z,93807.00
2023-03-14T18:15:28.394Z,93817.00
2023-03-14T18:19:28.596Z,93827.00
2023-03-14T18:23:29.066Z,93839.00
2023-03-14T18:27:28.927Z,93848.00
2023-03-14T18:31:29.099Z,93850.00
2023-03-14T18:35:29.247Z,93862.00
2023-03-14T18:39:29.488Z,93870.00
2023-03-14T18:43:29.410Z,93872.00
2023-03-14T18:47:29.417Z,93887.00
2023-03-14T18:51:29.416Z,93887.00
2023-03-14T18:55:29.285Z,93891.00
2023-03-14T18:59:29.235Z,93885.00
2023-03-14T19:03:29.250Z,93885.00
2023-03-14T19:07:29.196Z,93897.00
2023-03-14T19:11:29.213Z,93899.00
2023-03-14T19:15:29.137Z,93901.00
2023-03-14T19:19:29.113Z,93909.00
2023-03-14T19:23:29.053Z,93907.00
2023-03-14T19:27:29.054Z,93903.00
2023-03-14T19:31:28.998Z,93903.00
2023-03-14T19:35:28.975Z,93905.00
2023-03-14T19:39:28.934Z,93909.00
2023-03-14T19:43:28.899Z,93917.00
2023-03-14T19:47:28.809Z,93911.00
2023-03-14T19:51:28.830Z,93927.00
2023-03-14T19:55:28.777Z,93936.00
2023-03-14T19:59:28.717Z,93938.00
2023-03-14T20:03:28.715Z,93927.00
2023-03-14T20:07:28.800Z,93934.00
2023-03-14T20:11:28.895Z,93946.00
2023-03-14T20:15:28.899Z,93958.00
2023-03-14T20:19:29.004Z,93970.00
2023-03-14T20:23:29.032Z,93970.00
2023-03-14T20:27:29.018Z,93974.00
2023-03-14T20:31:29.028Z,93978.00
2023-03-14T20:35:28.929Z,93983.00
2023-03-14T20:39:28.923Z,93983.00
2023-03-14T20:43:28.985Z,93978.00
2023-03-14T20:47:28.910Z,93983.00
2023-03-14T20:51:28.918Z,93985.00
2023-03-14T20:55:28.882Z,93991.00
2023-03-14T20:59:28.881Z,93995.00
2023-03-14T21:03:28.815Z,94001.00
2023-03-14T21:07:47.547Z,94005.00
2023-03-14T21:11:47.510Z,94003.00
2023-03-14T21:15:47.608Z,94009.00
2023-03-14T21:19:47.448Z,94013.00
2023-03-14T21:23:47.460Z,94013.00
2023-03-14T21:27:47.427Z,94005.00
2023-03-14T21:31:47.410Z,94007.00
2023-03-14T21:35:47.351Z,94019.00
2023-03-14T21:39:47.276Z,94019.00
2023-03-14T21:43:47.285Z,94023.00
2023-03-14T21:47:47.168Z,94027.00
2023-03-14T21:51:47.173Z,94029.00
2023-03-14T21:55:47.118Z,94036.00
2023-03-14T21:59:47.072Z,94044.00
2023-03-14T22:03:47.080Z,94052.00
2023-03-14T22:07:47.273Z,94060.00
2023-03-14T22:11:46.956Z,94066.00
2023-03-14T22:15:47.111Z,94074.00
2023-03-14T22:19:46.899Z,94076.00
2023-03-14T22:23:46.877Z,94080.00
2023-03-14T22:27:46.801Z,94083.00
2023-03-14T22:31:46.866Z,94081.00
2023-03-14T22:35:46.839Z,94081.00
2023-03-14T22:39:46.702Z,94080.00
2023-03-14T22:43:46.645Z,94087.00
2023-03-14T22:47:46.688Z,94089.00
2023-03-14T22:51:46.710Z,94095.00
2023-03-14T22:55:46.838Z,94099.00
2023-03-14T22:59:46.860Z,94093.00
2023-03-14T23:03:46.946Z,94099.00
2023-03-14T23:07:47.022Z,94107.00
2023-03-14T23:11:47.099Z,94119.00
2023-03-14T23:15:47.178Z,94125.00
2023-03-14T23:19:47.317Z,94131.00
2023-03-14T23:23:47.402Z,94131.00
2023-03-14T23:27:47.439Z,94127.00
2023-03-14T23:31:47.512Z,94127.00
2023-03-14T23:35:47.831Z,94129.00
2023-03-14T23:39:47.718Z,94127.00
2023-03-14T23:43:47.806Z,94133.00
2023-03-14T23:47:47.874Z,94138.00
2023-03-14T23:51:47.958Z,94140.00
2023-03-14T23:55:48.020Z,94142.00
2023-03-14T23:59:48.145Z,94134.00
